Nsu Inspire — 3FID5 — position and weather

sailwx.info

Track history (hours):
 
Tides and Currents Weather Stations Pressure Air Temp Water Temp Dewpoint Dewpoint Depression Visibility Wind Speed Wind Dir Waves Ship Positions

Nsu Inspire

Last reported at 2014-Dec-18 18:31 UTC. Time now 2014-Dec-18 22:18 UTC.
Position N 35°11' E 139°45'.

Length 330 m; draft 12.9 m.

Type: Cargo ship. MMSI: 372998000.

Date/timePositionNaut miles runAvg speedWind from/ knotsBaromVisibWave heightAir tempDewpointWater temp
2014-Dec-18 18:31N 35°11' E 139°45'9 9.9
2014-Dec-18 17:33N 35°20' E 139°43'7 6.9
2014-Dec-18 16:33N 35°23' E 139°50'2 1.3
2014-Dec-18 15:20N 35°22' E 139°52'0 0.0
2014-Dec-18 14:29N 35°22' E 139°52'0 0.0
2014-Dec-18 13:29N 35°22' E 139°52'0 0.0
2014-Dec-18 11:26N 35°22' E 139°52'0 0.0
2014-Dec-18 05:32N 35°22' E 139°52'0 0.0
2014-Dec-18 04:32N 35°22' E 139°52'0 0.0
2014-Dec-18 00:26N 35°22' E 139°52'0 0.0
2014-Dec-17 23:32N 35°22' E 139°52'0 0.0
2014-Dec-17 22:32N 35°22' E 139°52'0 0.0
2014-Dec-17 21:32N 35°22' E 139°52'0 0.0
2014-Dec-17 20:26N 35°22' E 139°52'0 0.0
2014-Dec-17 19:20N 35°22' E 139°52'0 0.0
2014-Dec-17 18:32N 35°22' E 139°52'0 0.0
2014-Dec-17 17:32N 35°22' E 139°52'0 0.0
2014-Dec-17 16:29N 35°22' E 139°52'0 0.0
2014-Dec-17 15:26N 35°22' E 139°52'0 0.0
2014-Dec-17 14:32N 35°22' E 139°52'0 0.0
2014-Dec-17 13:32N 35°22' E 139°52'0 0.0
2014-Dec-17 12:32N 35°22' E 139°52'0 0.0
2014-Dec-17 06:32N 35°22' E 139°52'0 0.0
2014-Dec-17 04:20N 35°22' E 139°52'0 0.0
2014-Dec-17 02:23N 35°22' E 139°52'0 0.0
2014-Dec-17 01:23N 35°22' E 139°52'0 0.0
2014-Dec-16 23:11N 35°22' E 139°52'0 0.0
2014-Dec-16 22:32N 35°22' E 139°52'0 0.0
2014-Dec-16 21:32N 35°22' E 139°52'0 0.0
2014-Dec-16 20:32N 35°22' E 139°52'0 0.0
2014-Dec-16 19:32N 35°22' E 139°52'0 0.0
2014-Dec-16 18:26N 35°22' E 139°52'0 0.0
2014-Dec-16 17:26N 35°22' E 139°52'0 0.0
2014-Dec-16 16:26N 35°22' E 139°52'0 0.0
2014-Dec-16 15:20N 35°22' E 139°52'0 0.0
2014-Dec-16 14:14N 35°22' E 139°52'0 0.0
2014-Dec-16 13:23N 35°22' E 139°52'0 0.0
2014-Dec-16 12:26N 35°22' E 139°52'0 0.0
2014-Dec-16 11:32N 35°22' E 139°52'0 0.0
2014-Dec-16 08:32N 35°22' E 139°52'0 0.0
2014-Dec-16 07:32N 35°22' E 139°52'0 0.0
2014-Dec-16 06:14N 35°22' E 139°52'0 0.1
2014-Dec-16 05:23N 35°22' E 139°52'3 3.2
2014-Dec-16 04:28N 35°24' E 139°49'6 7.0
2014-Dec-16 03:33N 35°19' E 139°44'10 9.7
2014-Dec-16 02:33N 35°09' E 139°47'  
Track history (hours):
 
Tides and Currents Weather Stations Pressure Air Temp Water Temp Dewpoint Dewpoint Depression Visibility Wind Speed Wind Dir Waves Ship Positions

Nsu Inspire

Last reported at 2014-Dec-18 18:31 UTC. Time now 2014-Dec-18 22:18 UTC.
Position N 35°11' E 139°45'.

Length 330 m; draft 12.9 m.

Type: Cargo ship. MMSI: 372998000.

Date/timePositionNaut miles runAvg speedWind from/ knotsBaromVisibWave heightAir tempDewpointWater temp
2014-Dec-18 18:31N 35°11' E 139°45'9 9.9
2014-Dec-18 17:33N 35°20' E 139°43'7 6.9
2014-Dec-18 16:33N 35°23' E 139°50'2 1.3
2014-Dec-18 15:20N 35°22' E 139°52'0 0.0
2014-Dec-18 14:29N 35°22' E 139°52'0 0.0
2014-Dec-18 13:29N 35°22' E 139°52'0 0.0
2014-Dec-18 11:26N 35°22' E 139°52'0 0.0
2014-Dec-18 05:32N 35°22' E 139°52'0 0.0
2014-Dec-18 04:32N 35°22' E 139°52'0 0.0
2014-Dec-18 00:26N 35°22' E 139°52'0 0.0
2014-Dec-17 23:32N 35°22' E 139°52'0 0.0
2014-Dec-17 22:32N 35°22' E 139°52'0 0.0
2014-Dec-17 21:32N 35°22' E 139°52'0 0.0
2014-Dec-17 20:26N 35°22' E 139°52'0 0.0
2014-Dec-17 19:20N 35°22' E 139°52'0 0.0
2014-Dec-17 18:32N 35°22' E 139°52'0 0.0
2014-Dec-17 17:32N 35°22' E 139°52'0 0.0
2014-Dec-17 16:29N 35°22' E 139°52'0 0.0
2014-Dec-17 15:26N 35°22' E 139°52'0 0.0
2014-Dec-17 14:32N 35°22' E 139°52'0 0.0
2014-Dec-17 13:32N 35°22' E 139°52'0 0.0
2014-Dec-17 12:32N 35°22' E 139°52'0 0.0
2014-Dec-17 06:32N 35°22' E 139°52'0 0.0
2014-Dec-17 04:20N 35°22' E 139°52'0 0.0
2014-Dec-17 02:23N 35°22' E 139°52'0 0.0
2014-Dec-17 01:23N 35°22' E 139°52'0 0.0
2014-Dec-16 23:11N 35°22' E 139°52'0 0.0
2014-Dec-16 22:32N 35°22' E 139°52'0 0.0
2014-Dec-16 21:32N 35°22' E 139°52'0 0.0
2014-Dec-16 20:32N 35°22' E 139°52'0 0.0
2014-Dec-16 19:32N 35°22' E 139°52'0 0.0
2014-Dec-16 18:26N 35°22' E 139°52'0 0.0
2014-Dec-16 17:26N 35°22' E 139°52'0 0.0
2014-Dec-16 16:26N 35°22' E 139°52'0 0.0
2014-Dec-16 15:20N 35°22' E 139°52'0 0.0
2014-Dec-16 14:14N 35°22' E 139°52'0 0.0
2014-Dec-16 13:23N 35°22' E 139°52'0 0.0
2014-Dec-16 12:26N 35°22' E 139°52'0 0.0
2014-Dec-16 11:32N 35°22' E 139°52'0 0.0
2014-Dec-16 08:32N 35°22' E 139°52'0 0.0
2014-Dec-16 07:32N 35°22' E 139°52'0 0.0
2014-Dec-16 06:14N 35°22' E 139°52'0 0.1
2014-Dec-16 05:23N 35°22' E 139°52'3 3.2
2014-Dec-16 04:28N 35°24' E 139°49'6 7.0
2014-Dec-16 03:33N 35°19' E 139°44'10 9.7
2014-Dec-16 02:33N 35°09' E 139°47'  

Dump ship's entire track history